Time;durP1;ratioP1;P1;durP2;ratioP2;P2;SDS_P1;SDS_P2;PMS_P1;PMS_P2;Temp;Humidity;BMP_temperature;BMP_pressure;BME280_temperature;BME280_humidity;BME280_pressure;Samples;Min_cycle;Max_cycle;Signal;HPM_P1;HPM_P2
2021/11/02 00:00:19;;;;;;;34.30;18.25;;;;;;;4.55;73.87;94279.06;5111351;28;20489;-72
2021/11/02 00:02:46;;;;;;;28.02;16.58;;;;;;;4.55;73.70;94276.50;5111627;28;20036;-73
2021/11/02 00:05:13;;;;;;;38.67;21.63;;;;;;;4.53;73.77;94268.06;5109469;28;20455;-71
2021/11/02 00:07:39;;;;;;;32.90;19.77;;;;;;;4.56;74.60;94260.13;5111072;28;20438;-72
2021/11/02 00:10:06;;;;;;;38.20;20.73;;;;;;;4.68;75.24;94260.13;5113449;27;20107;-71
2021/11/02 00:12:32;;;;;;;37.55;21.02;;;;;;;4.73;75.52;94249.50;5094521;28;20062;-71
2021/11/02 00:14:58;;;;;;;36.90;20.63;;;;;;;4.90;75.38;94256.91;5111068;28;20038;-73
2021/11/02 00:17:26;;;;;;;36.00;21.23;;;;;;;5.04;76.84;94242.22;5111367;28;20405;-72
2021/11/02 00:19:56;;;;;;;37.20;22.27;;;;;;;5.27;76.01;94269.78;5111739;28;20030;-71
2021/11/02 00:22:23;;;;;;;35.08;19.80;;;;;;;5.36;75.35;94258.00;5092496;28;20019;-72
2021/11/02 00:27:25;;;;;;;34.55;20.50;;;;;;;5.44;74.58;94260.03;5095423;28;20556;-72
2021/11/02 00:29:52;;;;;;;33.08;18.77;;;;;;;5.51;73.95;94256.06;5093962;28;20040;-71
2021/11/02 00:32:18;;;;;;;32.08;18.95;;;;;;;5.54;73.71;94253.25;5112471;28;20487;-72
2021/11/02 00:34:43;;;;;;;35.05;21.13;;;;;;;5.52;73.51;94250.81;5094419;28;20059;-72
2021/11/02 00:37:08;;;;;;;36.25;20.85;;;;;;;5.51;73.36;94264.59;5074190;28;20114;-71
2021/11/02 00:39:34;;;;;;;32.60;19.23;;;;;;;5.51;73.14;94262.03;5111662;28;20163;-71
2021/11/02 00:42:00;;;;;;;32.00;19.15;;;;;;;5.46;73.13;94255.56;5110837;28;20036;-71
2021/11/02 00:44:25;;;;;;;33.10;18.95;;;;;;;5.40;73.13;94253.44;5077404;28;20044;-71
2021/11/02 00:46:51;;;;;;;31.35;18.58;;;;;;;5.37;72.82;94255.28;5093584;28;20486;-71
2021/11/02 00:49:18;;;;;;;32.83;19.27;;;;;;;5.30;72.65;94242.97;5094043;28;20066;-71
2021/11/02 00:51:45;;;;;;;33.35;20.65;;;;;;;5.23;72.80;94240.00;5111998;28;20053;-71
2021/11/02 00:54:10;;;;;;;35.28;20.75;;;;;;;5.17;72.64;94237.88;5091427;28;20036;-71
2021/11/02 00:56:36;;;;;;;34.72;20.60;;;;;;;5.08;72.78;94223.06;5110884;28;20077;-71
2021/11/02 00:59:01;;;;;;;35.33;20.23;;;;;;;4.97;72.82;94221.25;5111636;28;20386;-71
2021/11/02 01:01:27;;;;;;;34.67;19.52;;;;;;;5.00;72.73;94225.38;5094346;28;20459;-71
2021/11/02 01:03:52;;;;;;;35.63;20.90;;;;;;;4.99;73.31;94228.88;5111521;28;20036;-71
2021/11/02 01:06:17;;;;;;;35.63;19.02;;;;;;;4.98;73.26;94232.38;5112615;28;20031;-71
2021/11/02 01:08:43;;;;;;;33.75;18.90;;;;;;;4.92;73.03;94231.84;5111899;28;20035;-72
2021/11/02 01:11:08;;;;;;;33.00;19.00;;;;;;;4.94;73.44;94239.47;5111235;28;20042;-71
2021/11/02 01:13:34;;;;;;;31.25;18.58;;;;;;;4.83;73.52;94218.81;5094341;28;20109;-71
2021/11/02 01:16:00;;;;;;;32.08;17.10;;;;;;;4.96;73.72;94231.63;5077304;28;20028;-71
2021/11/02 01:18:26;;;;;;;31.83;19.05;;;;;;;4.89;74.02;94219.19;5094032;28;20043;-71
2021/11/02 01:20:51;;;;;;;36.33;19.48;;;;;;;4.97;74.61;94231.53;5112258;28;20489;-71
2021/11/02 01:23:17;;;;;;;33.08;18.73;;;;;;;5.01;74.67;94232.16;5094123;28;20023;-71
2021/11/02 01:25:43;;;;;;;38.63;20.65;;;;;;;5.13;74.86;94231.31;5131062;27;20454;-71
2021/11/02 01:28:08;;;;;;;40.55;21.17;;;;;;;5.20;75.16;94241.97;5132736;27;20048;-71
2021/11/02 01:30:34;;;;;;;37.45;20.98;;;;;;;5.24;75.09;94239.09;5132699;27;20035;-71
2021/11/02 01:33:00;;;;;;;33.28;19.08;;;;;;;5.29;75.05;94239.59;5114091;27;20039;-71
2021/11/02 01:35:26;;;;;;;35.72;21.00;;;;;;;5.28;75.07;94235.34;5131273;27;20116;-73
2021/11/02 01:37:51;;;;;;;30.80;18.33;;;;;;;5.27;74.96;94223.41;5097310;27;20074;-72
2021/11/02 01:40:17;;;;;;;35.10;20.45;;;;;;;5.30;74.62;94228.34;5131588;27;20546;-73
2021/11/02 01:42:43;;;;;;;37.97;20.08;;;;;;;5.19;74.44;94212.84;5114309;27;20039;-73
2021/11/02 01:45:09;;;;;;;34.72;19.00;;;;;;;5.11;74.34;94217.69;5131283;27;20027;-73
2021/11/02 01:47:35;;;;;;;33.65;19.80;;;;;;;5.15;74.00;94219.13;5114267;27;20027;-73
2021/11/02 01:50:03;;;;;;;35.85;19.35;;;;;;;5.11;73.98;94202.25;5131172;27;20512;-73
2021/11/02 01:52:28;;;;;;;29.55;18.23;;;;;;;5.12;74.28;94206.47;5114487;27;20080;-73
2021/11/02 01:54:54;;;;;;;29.55;17.88;;;;;;;5.01;74.26;94196.09;5131027;27;20027;-73
2021/11/02 01:57:19;;;;;;;31.45;19.05;;;;;;;4.98;74.06;94186.03;5131142;27;20024;-73
2021/11/02 01:59:45;;;;;;;32.13;17.15;;;;;;;5.04;74.48;94194.16;5131435;27;20119;-73
2021/11/02 02:02:20;;;;;;;30.85;18.25;;;;;;;5.00;74.08;94179.03;5113881;27;20469;-73
2021/11/02 02:04:57;;;;;;;34.33;19.75;;;;;;;5.01;74.12;94184.03;5098137;27;20046;-73
2021/11/02 02:07:42;;;;;;;28.60;15.73;;;;;;;5.01;74.07;94186.63;5132138;27;20042;-73
2021/11/02 02:10:26;;;;;;;32.75;19.38;;;;;;;4.97;74.25;94190.34;5097865;27;20039;-73
2021/11/02 02:13:04;;;;;;;33.40;17.80;;;;;;;4.91;74.34;94183.88;5132067;27;20099;-73
2021/11/02 02:15:52;;;;;;;28.75;16.80;;;;;;;4.93;74.49;94191.50;5131047;27;20106;-73
2021/11/02 02:18:34;;;;;;;29.27;17.17;;;;;;;4.90;74.34;94189.97;5132352;27;20038;-72
2021/11/02 02:21:27;;;;;;;34.58;19.23;;;;;;;4.90;74.35;94178.84;5097079;27;20031;-73
2021/11/02 02:24:20;;;;;;;48.60;28.10;;;;;;;4.93;74.16;94161.44;5127452;27;20584;-72
2021/11/02 02:27:17;;;;;;;55.75;30.88;;;;;;;4.82;74.80;94175.97;5110156;28;20185;-72
2021/11/02 02:29:43;;;;;;;49.83;28.20;;;;;;;4.84;74.92;94172.38;5111841;28;20104;-72
2021/11/02 02:32:10;;;;;;;48.72;27.88;;;;;;;4.83;75.07;94163.03;5110147;28;20477;-72
2021/11/02 02:34:36;;;;;;;42.30;24.38;;;;;;;4.92;75.16;94146.09;5093213;28;20256;-72
2021/11/02 02:37:01;;;;;;;41.00;24.50;;;;;;;4.95;75.64;94135.59;5093237;28;20123;-72
2021/11/02 02:39:26;;;;;;;36.25;20.95;;;;;;;5.02;74.93;94125.69;5093221;28;20481;-72
2021/11/02 02:41:52;;;;;;;39.15;22.73;;;;;;;5.05;75.20;94125.47;5093051;28;20382;-72
2021/11/02 02:44:17;;;;;;;34.83;20.88;;;;;;;5.01;75.10;94114.53;5093273;28;20024;-72
2021/11/02 02:46:43;;;;;;;35.70;19.23;;;;;;;5.08;75.14;94110.59;5093052;28;20032;-73
2021/11/02 02:49:09;;;;;;;29.65;18.15;;;;;;;5.07;75.17;94105.56;5092984;28;20040;-73
2021/11/02 02:51:37;;;;;;;29.83;17.50;;;;;;;5.10;74.91;94123.38;5093208;28;20383;-72
2021/11/02 02:54:03;;;;;;;31.92;18.23;;;;;;;5.11;74.73;94118.09;5093497;28;20046;-72
2021/11/02 02:56:29;;;;;;;34.97;21.05;;;;;;;5.06;74.82;94119.38;5093314;28;20026;-72
2021/11/02 02:58:58;;;;;;;39.38;22.10;;;;;;;5.08;74.98;94135.53;5093260;28;20126;-72
2021/11/02 03:01:24;;;;;;;41.33;23.77;;;;;;;5.05;74.65;94146.06;5109966;28;20520;-72
2021/11/02 03:03:53;;;;;;;40.70;23.13;;;;;;;4.99;74.59;94138.78;5093238;28;20039;-72
2021/11/02 03:06:23;;;;;;;41.83;24.08;;;;;;;5.03;74.49;94135.84;5109809;28;20020;-72
2021/11/02 03:08:50;;;;;;;38.15;23.20;;;;;;;5.00;74.81;94148.13;5110876;28;20028;-73
2021/11/02 03:11:15;;;;;;;39.80;21.90;;;;;;;4.98;74.87;94137.13;5109757;28;20115;-72
2021/11/02 03:13:47;;;;;;;41.90;22.95;;;;;;;4.96;75.07;94142.38;5109938;28;20036;-72
2021/11/02 03:16:14;;;;;;;43.40;22.90;;;;;;;5.06;75.28;94127.09;5093171;28;20126;-72
2021/11/02 03:49:30;;;;;;;38.25;20.83;;;;;;;5.62;75.58;94088.63;5100309;28;20115;-72
2021/11/02 04:22:17;;;;;;;34.40;17.95;;;;;;;5.90;74.50;94028.06;5133787;27;20072;-72
2021/11/02 05:47:50;;;;;;;34.78;19.42;;;;;;;7.29;74.22;94011.00;5109495;27;20441;-74
2021/11/02 06:00:33;;;;;;;64.50;34.42;;;;;;;7.44;73.29;94024.44;5131658;27;20023;-73
2021/11/02 06:03:24;;;;;;;85.68;43.35;;;;;;;7.35;72.00;94009.66;5113595;27;20031;-74
2021/11/02 06:06:00;;;;;;;73.78;38.88;;;;;;;7.32;72.39;94007.34;5115488;27;20050;-75
2021/11/02 06:08:55;;;;;;;74.68;37.25;;;;;;;7.37;72.54;94010.38;5100476;27;20035;-76
2021/11/02 06:28:37;;;;;;;;;;;;;;;7.66;72.71;94005.38;5110491;28;20070;-75
2021/11/02 06:31:11;;;;;;;49.60;26.58;;;;;;;7.68;72.99;94006.03;5106291;28;20377;-75
2021/11/02 06:36:32;;;;;;;48.03;28.48;;;;;;;7.74;72.05;93996.94;5114483;28;20145;-74
2021/11/02 06:50:17;;;;;;;53.35;29.55;;;;;;;7.72;71.72;94012.59;5115758;28;20061;-73
2021/11/02 07:22:43;;;;;;;24.50;15.15;;;;;;;8.30;70.04;94011.97;5115099;27;20027;-72
2021/11/02 08:47:55;;;;;;;19.90;12.60;;;;;;;8.06;74.10;93982.09;5113818;28;20032;-77
2021/11/02 08:50:21;;;;;;;18.95;12.27;;;;;;;8.10;73.30;93989.59;5112209;28;20028;-77
2021/11/02 08:52:57;;;;;;;19.13;11.50;;;;;;;8.20;73.69;94011.97;5111922;28;20024;-77
2021/11/02 08:55:22;;;;;;;17.83;11.25;;;;;;;8.26;74.60;94026.13;5096375;28;20469;-77
2021/11/02 08:57:48;;;;;;;21.38;12.85;;;;;;;8.27;74.50;94020.00;5095179;28;20034;-77
2021/11/02 09:00:15;;;;;;;21.65;13.05;;;;;;;8.25;74.62;94004.63;5095135;28;20035;-77
2021/11/02 09:02:42;;;;;;;19.52;11.45;;;;;;;8.32;74.26;94012.66;5112194;28;20024;-77
2021/11/02 09:05:23;;;;;;;23.00;14.57;;;;;;;8.11;75.57;93980.88;5094896;28;20032;-77
2021/11/02 09:07:48;;;;;;;62.15;37.90;;;;;;;8.25;75.44;94003.81;5111582;28;20409;-77
2021/11/02 09:10:15;;;;;;;46.53;28.88;;;;;;;8.31;75.17;94030.94;5094966;28;20027;-77
2021/11/02 09:12:43;;;;;;;46.17;26.10;;;;;;;8.30;75.62;94037.84;5094890;28;20528;-77
2021/11/02 09:15:08;;;;;;;40.38;24.13;;;;;;;8.27;75.05;94040.69;5094877;28;20035;-77
2021/11/02 09:17:34;;;;;;;39.50;22.98;;;;;;;8.31;74.83;94055.03;5094362;28;20454;-77
2021/11/02 09:20:00;;;;;;;39.85;23.30;;;;;;;8.34;74.83;94061.72;5094604;28;20470;-77
2021/11/02 09:22:26;;;;;;;39.67;23.90;;;;;;;8.36;75.00;94065.81;5111851;28;20032;-77
2021/11/02 09:24:51;;;;;;;35.88;21.50;;;;;;;8.35;74.86;94058.97;5094648;28;20425;-77
2021/11/02 09:27:17;;;;;;;38.15;22.17;;;;;;;8.34;74.85;94056.53;5077293;28;20131;-77
2021/11/02 09:29:42;;;;;;;41.92;23.08;;;;;;;8.36;75.48;94052.88;5094137;28;20390;-77
2021/11/02 09:32:08;;;;;;;39.75;23.10;;;;;;;8.34;75.91;94053.94;5111385;28;20039;-77
2021/11/02 09:34:34;;;;;;;44.88;23.30;;;;;;;8.30;75.85;94043.03;5089362;28;20052;-77
2021/11/02 09:37:18;;;;;;;36.47;21.15;;;;;;;8.28;76.08;94032.81;5073691;28;20032;-77
2021/11/02 09:39:51;;;;;;;36.88;21.58;;;;;;;8.21;76.18;94028.28;5091069;28;20150;-77
2021/11/02 09:42:46;;;;;;;38.53;21.40;;;;;;;8.23;75.96;94034.16;5074032;28;20043;-77
2021/11/02 09:45:28;;;;;;;28.67;17.88;;;;;;;8.24;76.17;94025.44;5073748;28;20570;-77
2021/11/02 09:48:15;;;;;;;37.60;21.38;;;;;;;8.28;76.16;94019.88;5090927;28;20036;-77
2021/11/02 09:51:03;;;;;;;33.28;19.77;;;;;;;8.31;75.90;94003.28;5090768;28;20020;-77
2021/11/02 09:53:32;;;;;;;35.55;21.08;;;;;;;8.27;76.17;93987.19;5094374;28;20048;-77
2021/11/02 09:55:58;;;;;;;38.67;23.17;;;;;;;8.16;77.11;93978.72;5091897;28;20569;-77
2021/11/02 09:58:38;;;;;;;35.28;20.75;;;;;;;8.15;76.63;93956.38;5091746;28;20131;-77
2021/11/02 10:01:35;;;;;;;36.42;21.15;;;;;;;8.03;76.68;93942.75;5091755;28;20031;-77
2021/11/02 10:04:19;;;;;;;35.90;20.38;;;;;;;8.02;76.55;93929.00;5076385;28;20036;-77
2021/11/02 10:07:05;;;;;;;39.33;22.20;;;;;;;8.01;77.04;93929.13;5075017;28;20125;-77
2021/11/02 10:10:11;;;;;;;39.50;21.77;;;;;;;8.11;77.10;93908.44;5090883;28;20077;-77
2021/11/02 10:12:56;;;;;;;;;;;;;;;8.17;76.81;93892.41;5076269;28;20040;-77
2021/11/02 10:15:42;;;;;;;56.70;30.92;;;;;;;8.16;77.10;93891.59;5090260;28;20355;-77
2021/11/02 10:18:33;;;;;;;63.97;37.85;;;;;;;8.18;77.30;93889.66;5091693;28;20032;-77
2021/11/02 10:21:26;;;;;;;60.45;35.22;;;;;;;8.19;77.41;93890.47;5073435;28;20036;-77
2021/11/02 10:24:12;;;;;;;49.70;31.65;;;;;;;8.29;77.79;93912.00;5079323;28;20036;-77
2021/11/02 10:27:08;;;;;;;46.72;30.17;;;;;;;8.28;77.79;93921.56;5090247;28;20493;-77
2021/11/02 10:29:56;;;;;;;45.97;27.20;;;;;;;8.28;78.07;93900.03;5091370;28;20244;-77
2021/11/02 10:32:26;;;;;;;30.77;18.92;;;;;;;8.25;77.62;93883.00;5091454;28;20127;-77
2021/11/02 10:35:19;;;;;;;31.40;17.80;;;;;;;8.41;77.92;93882.50;5089634;28;20113;-76
2021/11/02 10:37:53;;;;;;;29.75;19.65;;;;;;;8.48;77.91;93909.47;5089696;28;20040;-76
2021/11/02 10:40:40;;;;;;;28.77;18.63;;;;;;;8.48;77.60;93885.34;5090074;28;20119;-76
2021/11/02 10:43:26;;;;;;;28.85;17.65;;;;;;;8.61;78.01;93885.06;5093804;28;20101;-77
2021/11/02 10:46:01;;;;;;;26.40;16.40;;;;;;;8.57;77.80;93879.34;5094193;28;20035;-77
2021/11/02 10:48:29;;;;;;;27.42;16.20;;;;;;;8.74;77.34;93875.25;5093813;28;20036;-77
2021/11/02 10:51:02;;;;;;;28.63;16.90;;;;;;;8.79;77.30;93882.59;5093499;28;20032;-77
2021/11/02 10:53:38;;;;;;;27.67;17.80;;;;;;;8.66;77.52;93851.81;5093702;28;20039;-77
2021/11/02 10:56:11;;;;;;;29.05;16.25;;;;;;;8.89;77.65;93873.06;5093286;28;20111;-77
2021/11/02 10:58:44;;;;;;;27.40;17.83;;;;;;;8.86;77.53;93892.28;5094969;28;20044;-77
2021/11/02 11:01:11;;;;;;;29.45;17.73;;;;;;;8.81;77.86;93878.91;5094564;28;20063;-77
2021/11/02 11:03:40;;;;;;;38.25;22.05;;;;;;;8.90;77.73;93882.44;5093457;28;20107;-77
2021/11/02 11:06:10;;;;;;;37.40;22.95;;;;;;;8.91;77.62;93884.06;5093265;28;20111;-77
2021/11/02 11:08:40;;;;;;;37.92;23.60;;;;;;;9.10;77.19;93906.53;5076727;28;20031;-77
2021/11/02 11:11:11;;;;;;;33.28;21.38;;;;;;;9.00;77.24;93891.03;5093260;28;20043;-77
2021/11/02 11:13:37;;;;;;;33.13;20.65;;;;;;;9.02;77.32;93885.69;5093143;28;20123;-77
2021/11/02 11:16:09;;;;;;;35.58;21.63;;;;;;;9.17;77.33;93915.41;5075984;28;20048;-77
2021/11/02 11:18:49;;;;;;;36.53;21.33;;;;;;;9.27;76.62;93923.94;5094516;28;20478;-77
2021/11/02 11:21:15;;;;;;;35.65;22.77;;;;;;;9.21;76.58;93916.72;5092990;28;20036;-77
2021/11/02 11:23:42;;;;;;;34.10;20.40;;;;;;;9.29;76.74;93926.41;5076153;28;20039;-77
2021/11/02 11:26:07;;;;;;;36.97;22.17;;;;;;;9.09;76.79;93884.19;5076108;28;20050;-77
2021/11/02 11:28:36;;;;;;;36.53;21.75;;;;;;;9.27;77.05;93900.63;5076084;28;20406;-78
2021/11/02 11:31:01;;;;;;;41.70;22.42;;;;;;;9.33;76.55;93902.66;5092741;28;20051;-76
2021/11/02 11:33:28;;;;;;;38.53;21.00;;;;;;;9.46;76.47;93902.31;5092961;28;20024;-77
2021/11/02 11:35:53;;;;;;;39.67;22.73;;;;;;;9.50;76.30;93902.84;5075624;28;20052;-76
2021/11/02 11:38:19;;;;;;;35.92;22.00;;;;;;;9.53;76.38;93903.41;5075712;28;20036;-77
2021/11/02 11:40:45;;;;;;;39.03;25.52;;;;;;;9.63;75.95;93898.16;5092707;28;20077;-76
2021/11/02 11:43:11;;;;;;;35.90;22.90;;;;;;;9.51;75.71;93883.75;5075581;28;20467;-77
2021/11/02 11:45:39;;;;;;;28.30;18.20;;;;;;;9.64;75.54;93899.81;5075589;28;20077;-76
2021/11/02 11:48:21;;;;;;;31.08;18.98;;;;;;;9.70;75.78;93899.22;5092452;28;20058;-76
2021/11/02 11:50:46;;;;;;;;;;;;;;;9.79;75.68;93919.09;5092981;28;20113;-76
2021/11/02 11:53:19;;;;;;;29.48;18.55;;;;;;;9.81;75.90;93916.38;5091453;28;20381;-76
2021/11/02 11:55:50;;;;;;;27.35;17.25;;;;;;;9.75;76.06;93902.22;5075905;28;20073;-77
2021/11/02 11:58:17;;;;;;;30.85;19.05;;;;;;;9.93;75.05;93920.41;5075425;28;20032;-77
2021/11/02 12:00:54;;;;;;;32.78;19.63;;;;;;;10.02;75.68;93914.34;5075400;28;20140;-76
2021/11/02 12:03:50;;;;;;;28.30;19.17;;;;;;;10.14;75.88;93907.19;5092265;28;20493;-77
2021/11/02 12:06:28;;;;;;;31.58;18.98;;;;;;;10.25;75.81;93890.56;5093374;28;20105;-77
2021/11/02 12:09:01;;;;;;;26.60;17.95;;;;;;;10.26;75.09;93893.03;5092236;28;20490;-77
2021/11/02 12:11:31;;;;;;;28.33;19.23;;;;;;;10.33;74.70;93892.47;5075142;28;20030;-76
2021/11/02 12:14:23;;;;;;;25.77;16.87;;;;;;;10.39;73.67;93894.47;5075274;28;20085;-76
2021/11/02 12:16:48;;;;;;;26.13;17.88;;;;;;;10.40;73.63;93894.31;5101200;28;20274;-77
2021/11/02 12:19:15;;;;;;;25.52;17.15;;;;;;;10.43;73.51;93886.25;5092076;28;20043;-77
2021/11/02 12:21:43;;;;;;;23.13;16.05;;;;;;;10.49;72.65;93895.22;5091678;28;20024;-77
2021/11/02 12:24:13;;;;;;;39.03;28.58;;;;;;;10.49;71.83;93890.03;5101083;27;20198;-78
2021/11/02 12:26:43;;;;;;;35.85;23.15;;;;;;;10.35;72.41;93878.38;5061760;27;20111;-75
2021/11/02 12:29:10;;;;;;;44.08;29.20;;;;;;;10.34;72.68;93870.75;5104802;27;20508;-77
2021/11/02 12:31:37;;;;;;;37.83;27.02;;;;;;;10.50;72.92;93882.09;5077847;28;20027;-78
2021/11/02 12:34:10;;;;;;;32.80;22.95;;;;;;;10.45;72.96;93876.53;5074090;28;20056;-77
2021/11/02 12:36:36;;;;;;;28.38;18.90;;;;;;;10.55;72.82;93888.59;5111799;28;20020;-77
2021/11/02 12:39:05;;;;;;;27.52;18.73;;;;;;;10.58;72.87;93886.53;5078095;28;20042;-77
2021/11/02 12:41:30;;;;;;;27.48;19.08;;;;;;;10.60;72.56;93889.78;5095028;28;20020;-77
2021/11/02 12:44:10;;;;;;;27.63;19.15;;;;;;;10.53;72.40;93868.00;5077801;28;20046;-77
2021/11/02 12:46:39;;;;;;;27.77;18.55;;;;;;;10.62;72.51;93874.88;5095372;28;20517;-78
2021/11/02 12:49:06;;;;;;;26.23;18.95;;;;;;;10.65;72.38;93877.19;5111822;28;20106;-77
2021/11/02 12:51:35;;;;;;;23.33;16.88;;;;;;;10.41;72.19;93838.03;5094825;28;20023;-77
2021/11/02 12:54:02;;;;;;;22.40;15.85;;;;;;;10.69;72.35;93881.09;5095041;28;20486;-77
2021/11/02 12:56:28;;;;;;;22.08;13.68;;;;;;;10.72;72.00;93880.78;5094718;28;20034;-77
2021/11/02 12:59:21;;;;;;;22.83;15.48;;;;;;;10.68;71.95;93870.88;5094748;28;20044;-77
2021/11/02 13:01:47;;;;;;;19.67;13.73;;;;;;;10.65;71.53;93868.56;5083685;28;20040;-77
2021/11/02 13:04:12;;;;;;;19.88;13.80;;;;;;;10.71;71.42;93884.38;5110689;28;20028;-77
2021/11/02 13:06:48;;;;;;;21.95;15.45;;;;;;;10.62;71.07;93885.28;5077267;28;20054;-77
2021/11/02 13:09:18;;;;;;;20.40;15.43;;;;;;;10.69;70.79;93883.69;5095943;28;20043;-77
2021/11/02 13:11:45;;;;;;;19.88;12.90;;;;;;;10.59;71.18;93875.19;5111320;28;20035;-77
2021/11/02 13:14:12;;;;;;;20.60;14.45;;;;;;;10.68;71.56;93895.06;5094547;28;20437;-77
2021/11/02 13:17:03;;;;;;;19.13;13.32;;;;;;;10.68;71.56;93902.84;5111134;28;20114;-77
2021/11/02 13:19:37;;;;;;;18.98;13.50;;;;;;;10.67;71.65;93903.00;5111271;28;20035;-77
2021/11/02 13:22:15;;;;;;;18.65;12.25;;;;;;;10.65;71.73;93899.75;5093981;28;20031;-77
2021/11/02 13:25:10;;;;;;;19.85;13.90;;;;;;;10.60;71.39;93897.59;5111270;28;20036;-77
2021/11/02 13:27:46;;;;;;;17.50;11.88;;;;;;;10.54;71.06;93898.19;5112466;28;20034;-77
2021/11/02 13:30:37;;;;;;;20.30;13.38;;;;;;;10.58;71.42;93896.09;5094827;28;20441;-77
2021/11/02 13:33:18;;;;;;;17.00;11.57;;;;;;;10.58;71.72;93889.13;5112123;28;20084;-77
2021/11/02 13:36:04;;;;;;;20.92;13.50;;;;;;;10.57;71.63;93899.66;5111950;28;20075;-77
2021/11/02 13:38:37;;;;;;;18.13;12.98;;;;;;;10.40;71.85;93872.75;5094110;28;20199;-77
2021/11/02 13:41:22;;;;;;;20.42;13.80;;;;;;;10.50;72.10;93892.47;5111880;28;20489;-77
2021/11/02 13:43:59;;;;;;;20.10;12.70;;;;;;;10.47;72.23;93886.75;5110724;28;20031;-77
2021/11/02 13:46:26;;;;;;;18.48;12.95;;;;;;;10.30;72.89;93867.63;5094472;28;20067;-77
2021/11/02 13:48:52;;;;;;;20.27;13.60;;;;;;;10.45;72.81;93893.91;5076682;28;20027;-77
2021/11/02 13:51:19;;;;;;;21.27;15.20;;;;;;;10.38;73.35;93885.88;5110576;28;20043;-77
2021/11/02 13:53:44;;;;;;;20.48;13.55;;;;;;;10.35;73.70;93873.19;5093775;28;20027;-77
2021/11/02 13:56:18;;;;;;;17.55;12.02;;;;;;;10.31;73.54;93869.25;5093408;28;20512;-77
2021/11/02 13:58:44;;;;;;;20.27;13.27;;;;;;;10.39;73.50;93894.47;5077022;28;20042;-77
2021/11/02 14:01:16;;;;;;;19.98;12.95;;;;;;;10.27;73.82;93892.09;5110223;28;20028;-77
2021/11/02 14:03:48;;;;;;;22.55;14.95;;;;;;;10.32;73.80;93912.41;5093730;28;20530;-77
2021/11/02 14:06:17;;;;;;;17.75;12.57;;;;;;;10.28;74.21;93914.50;5110294;28;20020;-77
2021/11/02 14:08:43;;;;;;;17.83;12.93;;;;;;;10.18;74.04;93908.53;5093590;28;20038;-75
2021/11/02 14:11:17;;;;;;;21.00;14.30;;;;;;;10.06;74.16;93894.94;5093278;28;20481;-75
2021/11/02 14:13:47;;;;;;;17.42;12.32;;;;;;;10.11;74.43;93904.88;5093559;28;20023;-75
2021/11/02 14:16:13;;;;;;;19.48;13.85;;;;;;;10.10;74.53;93899.84;5109676;28;20080;-75
2021/11/02 14:18:41;;;;;;;19.77;13.50;;;;;;;10.06;73.90;93902.72;5093324;28;20028;-75
2021/11/02 14:21:11;;;;;;;19.27;13.23;;;;;;;9.98;74.63;93881.88;5110080;28;20094;-75
2021/11/02 14:23:39;;;;;;;22.40;15.50;;;;;;;10.04;74.52;93898.63;5093335;28;20039;-75
2021/11/02 14:26:25;;;;;;;23.30;15.43;;;;;;;10.01;74.14;93904.94;5093288;28;20032;-75
2021/11/02 14:28:52;;;;;;;19.92;13.90;;;;;;;9.98;74.45;93896.63;5110180;28;20497;-76
2021/11/02 14:31:50;;;;;;;22.05;14.55;;;;;;;9.94;74.78;93903.06;5093372;28;20121;-75
2021/11/02 14:34:28;;;;;;;23.98;14.43;;;;;;;9.87;74.88;93902.84;5087636;28;20097;-75
2021/11/02 14:37:13;;;;;;;16.92;11.60;;;;;;;9.82;75.07;93902.44;5109894;28;20024;-75
2021/11/02 14:40:02;;;;;;;16.67;12.00;;;;;;;9.73;75.01;93904.13;5076250;28;20043;-75
2021/11/02 14:42:40;;;;;;;20.83;13.40;;;;;;;9.69;75.18;93907.94;5090540;28;20076;-75
2021/11/02 14:45:07;;;;;;;21.25;13.73;;;;;;;9.54;74.93;93889.47;5109199;28;20106;-75
2021/11/02 14:47:36;;;;;;;22.65;15.38;;;;;;;9.56;75.35;93897.13;5109609;28;20042;-76
2021/11/02 14:50:31;;;;;;;23.02;14.63;;;;;;;9.52;75.40;93903.53;5076028;28;20489;-75
2021/11/02 14:53:10;;;;;;;20.73;14.10;;;;;;;9.46;75.46;93911.88;5111161;28;20484;-75
2021/11/02 14:55:49;;;;;;;23.75;16.50;;;;;;;9.37;75.50;93909.19;5110073;28;20088;-75
2021/11/02 14:58:42;;;;;;;25.83;17.60;;;;;;;9.30;75.29;93912.47;5109763;28;20028;-75
2021/11/02 15:01:20;;;;;;;22.48;14.98;;;;;;;9.24;75.23;93908.66;5109614;28;20027;-75
2021/11/02 15:04:00;;;;;;;23.70;14.75;;;;;;;9.16;75.34;93917.16;5109770;28;20036;-75
2021/11/02 15:06:40;;;;;;;23.05;16.02;;;;;;;9.10;75.40;93932.44;5110943;28;20482;-75
2021/11/02 15:09:07;;;;;;;25.88;17.98;;;;;;;8.98;75.49;93918.03;5092935;28;20082;-75
2021/11/02 15:11:32;;;;;;;21.25;14.88;;;;;;;8.97;75.83;93937.09;5109673;28;20458;-75
2021/11/02 15:14:00;;;;;;;22.63;15.48;;;;;;;8.85;75.81;93932.06;5092935;28;20040;-75
2021/11/02 15:16:26;;;;;;;26.05;16.90;;;;;;;8.86;75.79;93932.88;5092736;28;20050;-75
2021/11/02 15:19:02;;;;;;;35.22;20.52;;;;;;;8.69;75.75;93929.22;5109643;28;20404;-75
2021/11/02 15:21:40;;;;;;;38.20;23.23;;;;;;;8.64;76.30;93928.81;5092848;28;20035;-75
2021/11/02 15:24:18;;;;;;;37.45;22.10;;;;;;;8.55;75.98;93927.03;5093525;28;20036;-75
2021/11/02 15:26:51;;;;;;;35.78;20.52;;;;;;;8.54;75.77;93940.94;5077102;28;20126;-75
2021/11/02 15:29:20;;;;;;;33.55;19.52;;;;;;;8.53;75.71;93934.13;5112824;28;20537;-75
2021/11/02 15:32:05;;;;;;;25.73;16.70;;;;;;;8.34;75.91;93925.38;5113268;28;20026;-75
2021/11/02 15:34:33;;;;;;;23.98;15.88;;;;;;;8.43;75.93;93944.47;5113239;28;20051;-75
2021/11/02 15:37:03;;;;;;;24.60;15.40;;;;;;;8.35;76.04;93942.53;5112967;28;20024;-75
2021/11/02 15:39:28;;;;;;;20.65;14.75;;;;;;;8.35;76.46;93936.53;5079461;28;20043;-75
2021/11/02 15:41:54;;;;;;;25.15;15.25;;;;;;;8.31;76.44;93941.16;5112951;28;20027;-75
2021/11/02 15:44:19;;;;;;;24.02;15.63;;;;;;;8.24;76.42;93940.06;5113262;28;20040;-75
2021/11/02 15:46:45;;;;;;;25.27;16.25;;;;;;;7.98;76.73;93912.09;5095744;28;20024;-75
2021/11/02 15:49:13;;;;;;;25.30;15.77;;;;;;;8.17;76.37;93944.16;5114442;28;20378;-75
2021/11/02 15:51:50;;;;;;;29.52;16.98;;;;;;;8.00;76.54;93927.50;5112832;28;20508;-75
2021/11/02 15:54:16;;;;;;;25.45;16.75;;;;;;;7.97;76.41;93925.19;5113087;28;20046;-75
2021/11/02 15:56:41;;;;;;;26.95;15.90;;;;;;;7.82;76.76;93910.03;5112719;28;20478;-75
2021/11/02 15:59:08;;;;;;;26.63;15.82;;;;;;;7.99;76.94;93949.13;5095660;28;20413;-75
2021/11/02 16:01:46;;;;;;;29.13;17.90;;;;;;;7.89;77.37;93899.16;5112710;28;20470;-75
2021/11/02 16:04:13;;;;;;;24.17;16.90;;;;;;;8.01;77.50;93955.81;5096235;28;20035;-75
2021/11/02 16:07:00;;;;;;;30.30;16.80;;;;;;;7.81;77.93;93928.25;5112536;28;20020;-75
2021/11/02 16:09:45;;;;;;;26.25;17.65;;;;;;;8.00;78.01;93953.38;5096036;28;20580;-76
2021/11/02 16:12:24;;;;;;;29.58;19.13;;;;;;;7.95;77.78;93914.97;5112395;28;20036;-76
2021/11/02 16:15:11;;;;;;;21.05;13.25;;;;;;;7.96;77.69;93937.28;5096894;28;20040;-76
2021/11/02 16:17:56;;;;;;;25.33;16.90;;;;;;;7.95;77.49;93958.94;5095341;28;20532;-76
2021/11/02 16:20:36;;;;;;;28.55;21.10;;;;;;;7.89;77.00;93950.88;5078635;28;20036;-75
2021/11/02 16:23:05;;;;;;;28.60;19.33;;;;;;;7.75;77.22;93976.16;5112252;28;20401;-76
2021/11/02 16:25:33;;;;;;;30.40;21.30;;;;;;;7.64;76.93;93959.91;5112259;28;20451;-75
2021/11/02 16:28:06;;;;;;;33.72;22.63;;;;;;;7.65;76.97;93979.63;5095231;28;20481;-75
2021/11/02 16:30:38;;;;;;;31.70;22.75;;;;;;;7.55;76.86;93957.16;5095113;28;20031;-75
2021/11/02 16:33:03;;;;;;;30.75;22.10;;;;;;;7.53;76.96;93986.66;5095697;28;20109;-75
2021/11/02 16:35:31;;;;;;;27.80;19.80;;;;;;;7.49;76.85;93991.25;5112010;28;20062;-75
2021/11/02 16:37:57;;;;;;;24.60;17.77;;;;;;;7.46;77.06;93999.25;5113219;28;20047;-75
2021/11/02 16:40:26;;;;;;;24.77;17.13;;;;;;;7.32;77.24;93984.91;5094765;28;20030;-75
2021/11/02 16:43:02;;;;;;;22.38;15.25;;;;;;;7.35;77.08;93994.16;5094871;28;20082;-75
2021/11/02 16:45:34;;;;;;;26.45;19.13;;;;;;;7.25;76.41;93998.47;5113115;28;20091;-75
2021/11/02 16:48:05;;;;;;;24.25;17.77;;;;;;;7.16;76.58;94016.38;5078185;28;20032;-75